KDNV/DNV METAR and TAF weather

Enter ICAO airport designator
Station Type Date Time Source
KDNV METAR 2020/08/14 00:55 UTC NOAA

KDNV 140055Z AUTO 00000KT 10SM CLR 24/23 A3005 RMK AO2 T02420227


Station Type Date Time Source
KDNV Decoded METAR 2020/08/14 00:55 UTC NOAA

Danville, Vermilion County Airport, IL, United States (KDNV) 40-11-58N 087-35-44W
Aug 13, 2020 - 08:55 PM EDT / 2020.08.14 0055 UTC
Wind: Calm:0
Visibility: 10 mile(s):0
Sky conditions: clear
Temperature: 75.6 F (24.2 C)
Dew Point: 72.9 F (22.7 C)
Relative Humidity: 91%
Pressure (altimeter): 30.05 in. Hg (1017 hPa)
ob: KDNV 140055Z AUTO 00000KT 10SM CLR 24/23 A3005 RMK AO2 T02420227
cycle: 1

Station Type Date Time Source
KDNV TAF UTC NOAA

Error!

Example: see airport list